createdAt,value
2019-06-20T00:00:51.477Z,10.28
2019-06-20T00:03:19.228Z,11.00
2019-06-20T00:05:46.554Z,10.05
2019-06-20T00:08:13.929Z,10.45
2019-06-20T00:10:41.200Z,11.93
2019-06-20T00:13:08.542Z,10.70
2019-06-20T00:15:35.871Z,10.55
2019-06-20T00:18:03.170Z,10.80
2019-06-20T00:20:30.467Z,12.13
2019-06-20T00:22:57.820Z,11.40
2019-06-20T00:25:25.122Z,10.95
2019-06-20T00:27:52.529Z,10.30
2019-06-20T00:30:19.890Z,11.03
2019-06-20T00:32:47.195Z,10.68
2019-06-20T00:35:14.497Z,10.75
2019-06-20T00:37:41.852Z,11.00
2019-06-20T00:40:09.114Z,10.48
2019-06-20T00:42:36.434Z,10.32
2019-06-20T00:45:04.829Z,12.18
2019-06-20T00:47:32.195Z,10.58
2019-06-20T00:49:59.477Z,11.10
2019-06-20T00:52:26.834Z,10.93
2019-06-20T00:54:54.125Z,10.88
2019-06-20T00:57:21.420Z,10.50
2019-06-20T00:59:49.761Z,11.70
2019-06-20T01:02:17.073Z,11.43
2019-06-20T01:04:44.491Z,11.43
2019-06-20T01:07:11.835Z,12.33
2019-06-20T01:09:39.124Z,12.58
2019-06-20T01:12:06.422Z,12.45
2019-06-20T01:14:33.751Z,12.35
2019-06-20T01:17:01.116Z,12.63
2019-06-20T01:19:28.535Z,11.45
2019-06-20T01:21:55.860Z,12.35
2019-06-20T01:24:23.188Z,12.68
2019-06-20T01:26:50.482Z,12.07
2019-06-20T01:29:17.815Z,11.73
2019-06-20T01:31:46.120Z,12.07
2019-06-20T01:34:13.615Z,12.53
2019-06-20T01:36:40.963Z,11.83
2019-06-20T01:39:08.264Z,12.23
2019-06-20T01:41:35.551Z,12.80
2019-06-20T01:44:02.905Z,12.43
2019-06-20T01:46:30.583Z,12.85
2019-06-20T01:48:57.957Z,12.47
2019-06-20T01:51:25.306Z,11.93
2019-06-20T01:53:52.619Z,12.82
2019-06-20T01:56:19.941Z,12.50
2019-06-20T01:58:47.387Z,12.47
2019-06-20T02:01:14.876Z,13.03
2019-06-20T02:03:43.188Z,13.40
2019-06-20T02:06:10.719Z,12.63
2019-06-20T02:08:38.039Z,12.33
2019-06-20T02:11:05.342Z,12.93
2019-06-20T02:13:34.233Z,12.88
2019-06-20T02:16:01.519Z,13.15
2019-06-20T02:18:28.809Z,12.80
2019-06-20T02:20:56.600Z,12.07
2019-06-20T02:23:25.005Z,13.65
2019-06-20T02:25:52.306Z,12.58
2019-06-20T02:28:19.659Z,13.32
2019-06-20T02:30:46.949Z,13.43
2019-06-20T02:33:14.594Z,13.45
2019-06-20T02:35:41.945Z,13.03
2019-06-20T02:38:09.205Z,13.88
2019-06-20T02:40:36.474Z,14.18
2019-06-20T02:43:03.807Z,14.15
2019-06-20T02:45:36.218Z,13.75
2019-06-20T02:48:04.216Z,13.60
2019-06-20T02:50:31.568Z,12.53
2019-06-20T02:52:58.901Z,12.88
2019-06-20T02:55:26.233Z,12.65
2019-06-20T02:57:53.986Z,13.45
2019-06-20T03:00:27.511Z,13.45
2019-06-20T03:02:54.589Z,13.00
2019-06-20T03:05:21.590Z,12.35
2019-06-20T03:07:48.890Z,14.13
2019-06-20T03:10:15.967Z,12.37
2019-06-20T03:12:42.938Z,12.65
2019-06-20T03:15:09.949Z,12.95
2019-06-20T03:17:37.522Z,13.32
2019-06-20T03:20:04.526Z,13.20
2019-06-20T03:22:31.549Z,12.85
2019-06-20T03:24:58.644Z,13.05
2019-06-20T03:27:25.649Z,13.62
2019-06-20T03:29:52.635Z,13.05
2019-06-20T03:32:19.701Z,12.40
2019-06-20T03:34:46.693Z,13.13
2019-06-20T03:37:14.029Z,14.03
2019-06-20T03:39:41.301Z,13.08
2019-06-20T03:42:10.227Z,13.60
2019-06-20T03:44:37.216Z,13.65
2019-06-20T03:47:04.279Z,13.98
2019-06-20T03:49:31.327Z,13.85
2019-06-20T03:51:58.323Z,14.58
2019-06-20T03:54:25.369Z,13.30
2019-06-20T03:56:52.431Z,13.60
2019-06-20T03:59:19.445Z,13.53
2019-06-20T04:01:49.121Z,13.62
2019-06-20T04:04:15.277Z,12.95
2019-06-20T04:06:42.300Z,12.95
2019-06-20T04:09:10.307Z,13.58
2019-06-20T04:11:37.581Z,13.93
2019-06-20T04:14:04.579Z,13.13
2019-06-20T04:16:31.668Z,13.83
2019-06-20T04:18:58.638Z,12.78
2019-06-20T04:21:25.622Z,12.58
2019-06-20T04:23:52.682Z,13.70
2019-06-20T04:26:19.681Z,13.10
2019-06-20T04:28:46.745Z,13.05
2019-06-20T04:31:13.793Z,13.38
2019-06-20T04:33:40.822Z,13.20
2019-06-20T04:36:07.948Z,13.13
2019-06-20T04:38:35.062Z,13.38
2019-06-20T04:41:02.075Z,12.98
2019-06-20T04:43:29.050Z,13.55
2019-06-20T04:46:03.910Z,13.15
2019-06-20T04:48:30.916Z,13.30
2019-06-20T04:50:57.898Z,13.53
2019-06-20T04:53:26.270Z,14.35
2019-06-20T04:55:53.299Z,12.53
2019-06-20T04:58:20.306Z,12.88
2019-06-20T05:00:47.405Z,13.22
2019-06-20T05:03:14.399Z,12.63
2019-06-20T05:05:41.388Z,13.08
2019-06-20T05:08:08.434Z,13.15
2019-06-20T05:10:35.703Z,13.35
2019-06-20T05:13:02.685Z,11.93
2019-06-20T05:15:30.052Z,13.20
2019-06-20T05:17:57.087Z,12.73
2019-06-20T05:20:24.149Z,12.53
2019-06-20T05:22:51.224Z,12.47
2019-06-20T05:25:18.229Z,12.35
2019-06-20T05:27:45.225Z,13.10
2019-06-20T05:30:12.294Z,12.18
2019-06-20T05:32:39.371Z,12.53
2019-06-20T05:35:09.086Z,12.58
2019-06-20T05:37:36.120Z,11.40
2019-06-20T05:40:06.129Z,11.45
2019-06-20T05:42:33.188Z,11.17
2019-06-20T05:45:00.494Z,11.70
2019-06-20T05:47:27.810Z,11.35
2019-06-20T05:49:55.099Z,11.12
2019-06-20T05:52:22.432Z,11.30
2019-06-20T05:54:49.721Z,11.08
2019-06-20T05:57:17.467Z,10.28
2019-06-20T05:59:44.812Z,10.58
2019-06-20T06:02:12.138Z,10.13
2019-06-20T06:04:39.568Z,10.05
2019-06-20T06:07:06.913Z,9.95
2019-06-20T06:09:35.209Z,9.20
2019-06-20T06:12:04.114Z,9.38
2019-06-20T06:14:31.688Z,9.70
2019-06-20T06:16:59.008Z,8.98
2019-06-20T06:19:26.320Z,9.88
2019-06-20T06:21:53.881Z,9.28
2019-06-20T06:24:21.773Z,9.38
2019-06-20T06:26:49.518Z,8.58
2019-06-20T06:29:16.897Z,8.65
2019-06-20T06:31:44.490Z,9.35
2019-06-20T06:34:11.796Z,8.90
2019-06-20T06:36:39.231Z,9.33
2019-06-20T06:39:07.479Z,9.10
2019-06-20T06:41:35.216Z,8.90
2019-06-20T06:44:02.677Z,9.10
2019-06-20T06:46:44.026Z,9.18
2019-06-20T06:48:59.013Z,8.88
2019-06-20T06:51:27.353Z,9.03
2019-06-20T06:53:54.686Z,8.88
2019-06-20T06:56:21.945Z,9.58
2019-06-20T06:58:49.277Z,9.43
2019-06-20T07:01:17.140Z,9.05
2019-06-20T07:03:44.509Z,9.65
2019-06-20T07:06:11.871Z,9.43
2019-06-20T07:08:39.663Z,9.28
2019-06-20T07:11:07.239Z,10.05
2019-06-20T07:13:35.499Z,9.85
2019-06-20T07:16:03.206Z,9.18
2019-06-20T07:18:31.154Z,9.88
2019-06-20T07:21:00.706Z,10.43
2019-06-20T07:23:28.131Z,10.30
2019-06-20T07:25:55.542Z,9.35
2019-06-20T07:28:23.135Z,9.88
2019-06-20T07:30:50.763Z,9.85
2019-06-20T07:33:19.988Z,9.58
2019-06-20T07:35:47.526Z,9.98
2019-06-20T07:38:15.285Z,10.45
2019-06-20T07:40:42.729Z,10.15
2019-06-20T07:43:11.593Z,9.10
2019-06-20T07:45:38.912Z,9.93
2019-06-20T07:48:06.214Z,10.32
2019-06-20T07:50:34.280Z,9.98
2019-06-20T07:53:02.882Z,10.08
2019-06-20T07:55:30.418Z,10.30
2019-06-20T07:57:57.919Z,9.90
2019-06-20T08:00:26.224Z,8.83
2019-06-20T08:02:53.656Z,9.35
2019-06-20T08:05:21.521Z,8.98
2019-06-20T08:07:48.877Z,8.45
2019-06-20T08:10:19.105Z,8.48
2019-06-20T08:12:46.592Z,8.38
2019-06-20T08:15:16.014Z,8.48
2019-06-20T08:17:43.537Z,8.60
2019-06-20T08:20:11.163Z,9.03
2019-06-20T08:22:38.443Z,9.85
2019-06-20T08:25:05.734Z,7.83
2019-06-20T08:27:51.884Z,8.13
2019-06-20T08:30:23.849Z,8.43
2019-06-20T08:32:51.210Z,8.43
2019-06-20T08:35:21.428Z,16.90
2019-06-20T08:37:49.026Z,9.48
2019-06-20T08:40:16.766Z,8.80
2019-06-20T08:42:44.385Z,8.63
2019-06-20T08:45:12.274Z,8.20
2019-06-20T08:47:39.679Z,7.87
2019-06-20T08:50:07.088Z,7.60
2019-06-20T08:52:34.439Z,7.40
2019-06-20T08:55:03.376Z,7.55
2019-06-20T08:57:30.765Z,7.15
2019-06-20T08:59:58.885Z,7.45
2019-06-20T09:02:26.239Z,14.63
2019-06-20T09:04:55.199Z,7.28
2019-06-20T09:07:22.648Z,8.00
2019-06-20T09:09:50.281Z,7.90
2019-06-20T09:12:18.079Z,7.75
2019-06-20T09:14:45.471Z,7.37
2019-06-20T09:17:13.617Z,7.92
2019-06-20T09:19:41.097Z,7.40
2019-06-20T09:22:08.391Z,7.28
2019-06-20T09:24:35.765Z,7.40
2019-06-20T09:27:04.275Z,7.50
2019-06-20T09:29:41.393Z,7.90
2019-06-20T09:32:01.803Z,7.75
2019-06-20T09:34:29.072Z,7.62
2019-06-20T09:36:57.538Z,7.75
2019-06-20T09:39:25.441Z,7.28
2019-06-20T09:41:52.821Z,7.15
2019-06-20T09:44:20.109Z,7.92
2019-06-20T09:46:47.816Z,7.78
2019-06-20T09:49:15.189Z,7.50
2019-06-20T09:51:42.453Z,8.30
2019-06-20T09:54:11.283Z,7.15
2019-06-20T09:56:48.503Z,7.40
2019-06-20T09:59:27.206Z,7.72
2019-06-20T10:01:47.612Z,7.28
2019-06-20T10:04:15.322Z,7.85
2019-06-20T10:06:44.078Z,7.30
2019-06-20T10:09:11.400Z,7.22
2019-06-20T10:11:38.812Z,7.15
2019-06-20T10:14:06.554Z,7.22
2019-06-20T10:16:45.383Z,7.40
2019-06-20T10:19:03.369Z,7.60
2019-06-20T10:21:30.784Z,7.47
2019-06-20T10:23:58.092Z,7.53
2019-06-20T10:26:25.489Z,7.22
2019-06-20T10:28:53.137Z,6.95
2019-06-20T10:31:21.105Z,6.97
2019-06-20T10:33:48.482Z,6.75
2019-06-20T10:36:15.829Z,6.72
2019-06-20T10:38:46.412Z,7.37
2019-06-20T10:41:13.960Z,7.08
2019-06-20T10:43:41.244Z,7.17
2019-06-20T10:46:08.607Z,6.83
2019-06-20T10:48:35.959Z,8.05
2019-06-20T10:51:21.523Z,7.30
2019-06-20T10:53:51.428Z,7.17
2019-06-20T10:56:19.368Z,7.55
2019-06-20T10:58:46.665Z,7.20
2019-06-20T11:01:14.360Z,7.15
2019-06-20T11:03:41.979Z,6.30
2019-06-20T11:06:09.367Z,6.15
2019-06-20T11:08:36.719Z,6.33
2019-06-20T11:11:03.976Z,7.30
2019-06-20T11:13:31.421Z,6.30
2019-06-20T11:15:58.746Z,7.58
2019-06-20T11:18:26.033Z,7.47
2019-06-20T11:20:54.099Z,8.55
2019-06-20T11:23:22.998Z,10.20
2019-06-20T11:25:50.366Z,10.65
2019-06-20T11:28:17.665Z,8.30
2019-06-20T11:30:55.993Z,8.15
2019-06-20T11:33:14.140Z,7.53
2019-06-20T11:35:41.821Z,8.23
2019-06-20T11:38:09.470Z,7.55
2019-06-20T11:40:38.051Z,6.87
2019-06-20T11:43:05.871Z,7.47
2019-06-20T11:45:35.421Z,7.72
2019-06-20T11:48:02.685Z,7.42
2019-06-20T11:50:29.984Z,7.72
2019-06-20T11:52:57.346Z,7.60
2019-06-20T11:55:25.124Z,7.92
2019-06-20T11:57:52.549Z,7.45
2019-06-20T12:00:20.999Z,6.92
2019-06-20T12:02:50.112Z,6.75
2019-06-20T12:05:18.055Z,7.60
2019-06-20T12:07:47.622Z,6.90
2019-06-20T12:10:15.080Z,7.50
2019-06-20T12:12:42.619Z,7.00
2019-06-20T12:15:10.376Z,6.90
2019-06-20T12:17:41.023Z,6.65
2019-06-20T12:20:08.393Z,7.17
2019-06-20T12:22:36.122Z,7.90
2019-06-20T12:25:05.212Z,7.50
2019-06-20T12:27:33.793Z,7.83
2019-06-20T12:30:01.170Z,6.97
2019-06-20T12:32:30.135Z,7.42
2019-06-20T12:34:57.450Z,6.92
2019-06-20T12:37:24.886Z,6.92
2019-06-20T12:39:52.196Z,7.58
2019-06-20T12:42:19.497Z,6.30
2019-06-20T12:44:46.820Z,6.67
2019-06-20T12:47:14.130Z,6.45
2019-06-20T12:49:41.783Z,6.45
2019-06-20T12:52:09.392Z,6.72
2019-06-20T12:54:36.710Z,5.97
2019-06-20T12:57:03.999Z,5.95
2019-06-20T12:59:31.357Z,6.65
2019-06-20T13:01:58.743Z,6.55
2019-06-20T13:04:26.041Z,6.03
2019-06-20T13:06:53.461Z,6.62
2019-06-20T13:09:20.786Z,6.62
2019-06-20T13:11:49.259Z,5.78
2019-06-20T13:14:16.946Z,5.80
2019-06-20T13:16:45.960Z,6.03
2019-06-20T13:19:13.424Z,6.28
2019-06-20T13:21:42.059Z,5.78
2019-06-20T13:24:09.766Z,10.35
2019-06-20T13:26:37.079Z,14.33
2019-06-20T13:29:05.046Z,6.72
2019-06-20T13:31:32.382Z,5.80
2019-06-20T13:33:59.819Z,6.10
2019-06-20T13:36:27.234Z,6.17
2019-06-20T13:38:54.563Z,6.33
2019-06-20T13:41:21.971Z,6.72
2019-06-20T13:43:49.499Z,6.45
2019-06-20T13:46:16.783Z,6.60
2019-06-20T13:48:45.676Z,7.35
2019-06-20T13:51:14.878Z,7.22
2019-06-20T13:53:42.694Z,7.22
2019-06-20T13:56:10.359Z,6.67
2019-06-20T13:58:40.544Z,7.03
2019-06-20T14:01:07.336Z,7.30
2019-06-20T14:03:34.621Z,6.92
2019-06-20T14:06:02.373Z,7.12
2019-06-20T14:08:29.687Z,7.12
2019-06-20T14:10:56.961Z,6.53
2019-06-20T14:13:24.325Z,6.97
2019-06-20T14:15:51.602Z,6.30
2019-06-20T14:18:18.882Z,15.00
2019-06-20T14:20:46.727Z,6.28
2019-06-20T14:23:14.821Z,6.22
2019-06-20T14:25:42.434Z,6.20
2019-06-20T14:28:11.448Z,5.85
2019-06-20T14:30:38.709Z,6.22
2019-06-20T14:33:06.004Z,5.90
2019-06-20T14:35:33.365Z,8.55
2019-06-20T14:38:00.742Z,5.65
2019-06-20T14:40:28.099Z,6.53
2019-06-20T14:42:55.460Z,6.47
2019-06-20T14:45:24.265Z,6.35
2019-06-20T14:47:52.670Z,6.35
2019-06-20T14:50:20.188Z,6.80
2019-06-20T14:52:48.523Z,6.78
2019-06-20T14:55:16.578Z,6.80
2019-06-20T14:57:45.243Z,6.25
2019-06-20T15:00:12.982Z,7.12
2019-06-20T15:02:40.595Z,6.90
2019-06-20T15:05:15.794Z,8.10
2019-06-20T15:07:45.060Z,6.62
2019-06-20T15:10:12.639Z,6.92
2019-06-20T15:12:40.023Z,8.55
2019-06-20T15:15:07.404Z,7.95
2019-06-20T15:17:34.711Z,7.85
2019-06-20T15:20:03.776Z,9.05
2019-06-20T15:22:31.113Z,7.17
2019-06-20T15:24:58.427Z,7.58
2019-06-20T15:27:26.420Z,7.53
2019-06-20T15:29:54.450Z,7.42
2019-06-20T15:32:21.779Z,7.30
2019-06-20T15:34:49.389Z,6.50
2019-06-20T15:37:17.280Z,5.90
2019-06-20T15:39:44.559Z,6.05
2019-06-20T15:42:11.957Z,6.87
2019-06-20T15:44:39.225Z,5.83
2019-06-20T15:47:06.508Z,5.75
2019-06-20T15:49:33.870Z,6.17
2019-06-20T15:52:01.133Z,6.78
2019-06-20T15:54:28.927Z,5.50
2019-06-20T15:56:56.275Z,6.22
2019-06-20T15:59:23.563Z,7.45
2019-06-20T16:01:50.855Z,6.83
2019-06-20T16:04:18.764Z,6.50
2019-06-20T16:06:46.049Z,7.03
2019-06-20T16:09:13.335Z,6.60
2019-06-20T16:11:40.687Z,6.85
2019-06-20T16:14:08.028Z,6.85
2019-06-20T16:16:35.357Z,7.08
2019-06-20T16:19:03.122Z,6.85
2019-06-20T16:21:30.408Z,7.25
2019-06-20T16:23:57.926Z,10.65
2019-06-20T16:26:25.369Z,7.20
2019-06-20T16:28:53.168Z,6.37
2019-06-20T16:31:26.655Z,6.80
2019-06-20T16:33:49.635Z,7.15
2019-06-20T16:36:16.925Z,7.58
2019-06-20T16:38:44.199Z,7.67
2019-06-20T16:41:11.516Z,8.05
2019-06-20T16:43:38.786Z,7.50
2019-06-20T16:46:06.140Z,7.55
2019-06-20T16:48:33.600Z,7.87
2019-06-20T16:51:01.101Z,10.45
2019-06-20T16:53:28.394Z,10.30
2019-06-20T16:55:55.713Z,8.20
2019-06-20T16:58:23.841Z,8.83
2019-06-20T17:00:51.269Z,7.80
2019-06-20T17:03:18.641Z,7.80
2019-06-20T17:05:45.937Z,8.13
2019-06-20T17:08:13.213Z,8.40
2019-06-20T17:10:40.568Z,9.03
2019-06-20T17:13:09.482Z,7.90
2019-06-20T17:15:36.770Z,8.60
2019-06-20T17:18:04.248Z,8.85
2019-06-20T17:20:31.645Z,8.65
2019-06-20T17:23:00.773Z,9.45
2019-06-20T17:25:33.290Z,8.13
2019-06-20T17:28:05.176Z,8.53
2019-06-20T17:30:33.520Z,8.13
2019-06-20T17:33:06.448Z,8.70
2019-06-20T17:35:33.882Z,8.33
2019-06-20T17:38:01.242Z,7.72
2019-06-20T17:40:28.535Z,9.03
2019-06-20T17:42:56.113Z,9.18
2019-06-20T17:45:23.626Z,8.78
2019-06-20T17:47:50.981Z,7.87
2019-06-20T17:50:19.170Z,7.58
2019-06-20T17:52:48.410Z,8.63
2019-06-20T17:55:15.745Z,8.23
2019-06-20T17:57:43.114Z,8.23
2019-06-20T18:00:11.272Z,8.13
2019-06-20T18:02:42.575Z,9.75
2019-06-20T18:05:10.129Z,7.70
2019-06-20T18:07:37.432Z,8.93
2019-06-20T18:10:06.170Z,9.45
2019-06-20T18:12:33.876Z,7.47
2019-06-20T18:15:04.453Z,7.03
2019-06-20T18:17:31.771Z,6.78
2019-06-20T18:19:59.185Z,6.00
2019-06-20T18:22:26.743Z,6.05
2019-06-20T18:24:58.785Z,6.28
2019-06-20T18:27:26.532Z,6.67
2019-06-20T18:29:53.865Z,6.30
2019-06-20T18:32:21.712Z,6.45
2019-06-20T18:35:01.551Z,7.42
2019-06-20T18:37:31.028Z,9.13
2019-06-20T18:39:48.124Z,6.63
2019-06-20T18:42:15.450Z,6.97
2019-06-20T18:44:43.728Z,7.35
2019-06-20T18:47:11.276Z,6.92
2019-06-20T18:49:38.569Z,6.42
2019-06-20T18:52:05.868Z,6.03
2019-06-20T18:54:33.274Z,5.55
2019-06-20T18:57:01.057Z,5.80
2019-06-20T18:59:28.419Z,5.58
2019-06-20T19:01:55.792Z,6.20
2019-06-20T19:04:23.155Z,8.28
2019-06-20T19:06:50.466Z,7.37
2019-06-20T19:09:18.034Z,7.65
2019-06-20T19:11:45.346Z,6.65
2019-06-20T19:14:12.849Z,6.95
2019-06-20T19:16:40.179Z,6.35
2019-06-20T19:19:07.494Z,5.90
2019-06-20T19:21:34.797Z,6.35
2019-06-20T19:24:04.564Z,5.35
2019-06-20T19:26:31.992Z,5.87
2019-06-20T19:28:59.304Z,5.37
2019-06-20T19:31:26.667Z,35.48
2019-06-20T19:33:54.159Z,6.35
2019-06-20T19:36:21.467Z,6.92
2019-06-20T19:38:48.849Z,5.95
2019-06-20T19:41:16.144Z,6.33
2019-06-20T19:43:43.521Z,8.23
2019-06-20T19:46:11.047Z,7.50
2019-06-20T19:48:38.505Z,6.08
2019-06-20T19:51:05.841Z,5.83
2019-06-20T19:53:33.435Z,6.00
2019-06-20T19:56:01.137Z,5.75
2019-06-20T19:58:28.505Z,6.00
2019-06-20T20:00:55.987Z,6.50
2019-06-20T20:03:23.339Z,6.08
2019-06-20T20:05:50.861Z,6.00
2019-06-20T20:08:19.013Z,6.08
2019-06-20T20:10:47.000Z,6.72
2019-06-20T20:13:15.482Z,7.40
2019-06-20T20:15:43.280Z,6.97
2019-06-20T20:18:11.876Z,7.17
2019-06-20T20:20:39.388Z,7.42
2019-06-20T20:23:06.957Z,7.30
2019-06-20T20:25:34.385Z,6.83
2019-06-20T20:28:01.694Z,7.25
2019-06-20T20:30:29.323Z,7.62
2019-06-20T20:32:56.616Z,6.80
2019-06-20T20:35:35.077Z,6.55
2019-06-20T20:37:54.958Z,7.58
2019-06-20T20:40:22.232Z,6.60
2019-06-20T20:42:49.568Z,6.70
2019-06-20T20:45:16.968Z,6.95
2019-06-20T20:47:47.493Z,7.15
2019-06-20T20:50:15.536Z,6.33
2019-06-20T20:52:42.872Z,7.12
2019-06-20T20:55:13.288Z,7.47
2019-06-20T20:57:41.216Z,7.42
2019-06-20T21:00:09.516Z,6.80
2019-06-20T21:02:37.695Z,7.37
2019-06-20T21:05:05.208Z,8.00
2019-06-20T21:07:32.665Z,13.68
2019-06-20T21:09:59.929Z,43.50
2019-06-20T21:12:27.267Z,13.43
2019-06-20T21:14:55.066Z,8.73
2019-06-20T21:17:22.411Z,8.93
2019-06-20T21:19:49.729Z,8.50
2019-06-20T21:22:17.763Z,9.60
2019-06-20T21:24:45.119Z,8.83
2019-06-20T21:27:14.454Z,7.08
2019-06-20T21:29:41.945Z,7.62
2019-06-20T21:32:09.666Z,8.23
2019-06-20T21:34:37.126Z,8.43
2019-06-20T21:37:06.043Z,7.97
2019-06-20T21:39:33.344Z,8.33
2019-06-20T21:42:00.645Z,7.97
2019-06-20T21:44:28.032Z,7.58
2019-06-20T21:46:56.017Z,8.63
2019-06-20T21:49:23.334Z,8.65
2019-06-20T21:51:50.968Z,8.73
2019-06-20T21:54:18.299Z,8.40
2019-06-20T21:56:45.602Z,10.45
2019-06-20T21:59:13.026Z,10.00
2019-06-20T22:01:40.290Z,10.78
2019-06-20T22:04:07.603Z,11.93
2019-06-20T22:06:35.017Z,13.35
2019-06-20T22:09:02.315Z,13.70
2019-06-20T22:11:31.432Z,14.38
2019-06-20T22:13:58.816Z,13.20
2019-06-20T22:16:26.119Z,11.50
2019-06-20T22:18:53.777Z,12.35
2019-06-20T22:21:21.093Z,13.50
2019-06-20T22:23:48.371Z,13.65
2019-06-20T22:26:15.684Z,13.65
2019-06-20T22:28:42.997Z,15.30
2019-06-20T22:31:10.266Z,14.90
2019-06-20T22:33:37.541Z,14.43
2019-06-20T22:36:05.346Z,14.35
2019-06-20T22:38:34.283Z,15.13
2019-06-20T22:41:01.833Z,15.13
2019-06-20T22:43:29.420Z,14.87
2019-06-20T22:45:56.695Z,16.23
2019-06-20T22:48:23.992Z,17.10
2019-06-20T22:50:53.118Z,16.35
2019-06-20T22:53:20.674Z,16.35
2019-06-20T22:55:48.072Z,17.00
2019-06-20T22:58:15.437Z,17.55
2019-06-20T23:00:45.924Z,14.30
2019-06-20T23:03:13.223Z,13.98
2019-06-20T23:05:40.564Z,16.62
2019-06-20T23:08:07.909Z,14.87
2019-06-20T23:10:35.261Z,14.75
2019-06-20T23:13:02.892Z,14.20
2019-06-20T23:15:30.183Z,15.20
2019-06-20T23:17:57.548Z,14.28
2019-06-20T23:20:24.922Z,15.10
2019-06-20T23:22:52.196Z,14.70
2019-06-20T23:25:19.537Z,15.30
2019-06-20T23:27:46.891Z,13.60
2019-06-20T23:30:14.507Z,14.70
2019-06-20T23:32:41.772Z,14.98
2019-06-20T23:35:09.103Z,15.53
2019-06-20T23:37:36.371Z,16.37
2019-06-20T23:40:05.562Z,15.98
2019-06-20T23:42:33.308Z,15.75
2019-06-20T23:45:00.781Z,16.30
2019-06-20T23:47:28.079Z,16.07
2019-06-20T23:49:55.427Z,17.17
2019-06-20T23:52:27.280Z,16.55
2019-06-20T23:54:54.625Z,17.12
2019-06-20T23:57:21.909Z,16.60
2019-06-20T23:59:49.255Z,17.40
